createdAt,value
2017-11-17T00:01:09.239Z,101861.52
2017-11-17T00:03:36.889Z,101866.81
2017-11-17T00:06:04.544Z,101862.91
2017-11-17T00:08:32.140Z,101864.72
2017-11-17T00:10:59.848Z,101866.52
2017-11-17T00:13:27.503Z,101868.75
2017-11-17T00:15:55.200Z,101879.86
2017-11-17T00:18:22.859Z,101886.80
2017-11-17T00:20:50.565Z,101887.77
2017-11-17T00:23:18.225Z,101889.28
2017-11-17T00:25:45.936Z,101889.41
2017-11-17T00:28:13.591Z,101892.35
2017-11-17T00:30:41.312Z,101899.72
2017-11-17T00:33:08.962Z,101902.49
2017-11-17T00:35:36.648Z,101903.30
2017-11-17T00:38:04.319Z,101898.03
2017-11-17T00:40:32.008Z,101907.20
2017-11-17T00:42:59.667Z,101907.20
2017-11-17T00:45:27.378Z,101912.17
2017-11-17T00:47:55.039Z,101907.45
2017-11-17T00:50:22.730Z,101904.00
2017-11-17T00:52:50.432Z,101918.30
2017-11-17T00:55:18.073Z,101919.28
2017-11-17T00:57:45.774Z,101917.31
2017-11-17T01:00:13.483Z,101931.36
2017-11-17T01:02:41.193Z,101929.55
2017-11-17T01:05:08.853Z,101928.17
2017-11-17T01:07:36.483Z,101934.40
2017-11-17T01:10:04.148Z,101936.38
2017-11-17T01:12:31.837Z,101939.41
2017-11-17T01:14:59.485Z,101941.64
2017-11-17T01:17:27.168Z,101951.23
2017-11-17T01:19:54.825Z,101945.38
2017-11-17T01:22:22.515Z,101952.20
2017-11-17T01:24:50.167Z,101955.81
2017-11-17T01:27:17.792Z,101947.73
2017-11-17T01:29:45.441Z,101958.46
2017-11-17T01:32:13.203Z,101954.84
2017-11-17T01:34:40.866Z,101956.91
2017-11-17T01:37:08.548Z,101952.48
2017-11-17T01:39:36.452Z,101957.73
2017-11-17T01:42:04.180Z,101966.36
2017-11-17T01:44:31.831Z,101969.14
2017-11-17T01:46:59.431Z,101976.76
2017-11-17T01:49:27.153Z,101973.30
2017-11-17T01:51:54.802Z,101976.63
2017-11-17T01:54:22.487Z,101974.27
2017-11-17T01:56:50.144Z,101975.77
2017-11-17T01:59:17.900Z,101981.91
2017-11-17T02:01:45.570Z,101987.83
2017-11-17T02:04:13.268Z,101993.24
2017-11-17T02:06:41.026Z,101994.88
2017-11-17T02:09:08.736Z,102005.12
2017-11-17T02:11:36.409Z,102002.33
2017-11-17T02:14:04.095Z,102005.07
2017-11-17T02:16:31.683Z,102010.34
2017-11-17T02:18:59.369Z,102006.98
2017-11-17T02:21:27.043Z,102011.51
2017-11-17T02:23:54.733Z,102008.55
2017-11-17T02:26:22.392Z,102011.12
2017-11-17T02:28:50.106Z,102019.97
2017-11-17T02:31:17.812Z,102019.38
2017-11-17T02:33:45.469Z,102027.52
2017-11-17T02:36:13.152Z,102025.29
2017-11-17T02:38:41.238Z,102030.64
2017-11-17T02:41:08.980Z,102028.01
2017-11-17T02:43:36.586Z,102031.28
2017-11-17T02:46:04.317Z,102035.38
2017-11-17T02:48:31.931Z,102031.05
2017-11-17T02:50:59.666Z,102039.86
2017-11-17T02:53:27.316Z,102039.63
2017-11-17T02:55:55.013Z,102043.16
2017-11-17T02:58:22.606Z,102046.02
2017-11-17T03:00:50.328Z,102050.77
2017-11-17T03:03:18.053Z,102048.55
2017-11-17T03:05:45.724Z,102053.68
2017-11-17T03:08:13.364Z,102057.57
2017-11-17T03:10:41.055Z,102048.06
2017-11-17T03:13:08.711Z,102054.05
2017-11-17T03:15:36.346Z,102057.95
2017-11-17T03:18:04.056Z,102055.98
2017-11-17T03:20:31.784Z,102061.64
2017-11-17T03:22:59.452Z,102065.91
2017-11-17T03:25:27.168Z,102068.84
2017-11-17T03:27:54.774Z,102077.56
2017-11-17T03:30:22.489Z,102072.88
2017-11-17T03:32:50.144Z,102084.74
2017-11-17T03:35:17.801Z,102080.70
2017-11-17T03:37:45.503Z,102082.64
2017-11-17T03:40:13.520Z,102081.64
2017-11-17T03:42:41.259Z,102098.66
2017-11-17T03:45:08.934Z,102090.32
2017-11-17T03:47:36.623Z,102092.51
2017-11-17T03:50:04.329Z,102099.85
2017-11-17T03:52:32.021Z,102101.10
2017-11-17T03:54:59.672Z,102098.70
2017-11-17T03:57:27.379Z,102105.04
2017-11-17T03:59:55.053Z,102115.83
2017-11-17T04:02:22.737Z,102113.77
2017-11-17T04:04:50.402Z,102118.61
2017-11-17T04:07:18.091Z,102117.66
2017-11-17T04:09:45.747Z,102115.96
2017-11-17T04:12:13.429Z,102115.38
2017-11-17T04:14:41.146Z,102121.38
2017-11-17T04:17:08.872Z,102125.59
2017-11-17T04:19:36.608Z,102117.58
2017-11-17T04:22:04.333Z,102119.42
2017-11-17T04:24:32.040Z,102126.13
2017-11-17T04:26:59.754Z,102133.75
2017-11-17T04:29:27.469Z,102134.60
2017-11-17T04:31:55.177Z,102135.44
2017-11-17T04:34:22.891Z,102131.79
2017-11-17T04:36:50.529Z,102135.50
2017-11-17T04:39:18.257Z,102133.33
2017-11-17T04:41:45.918Z,102139.05
2017-11-17T04:44:13.633Z,102145.43
2017-11-17T04:46:41.573Z,102146.22
2017-11-17T04:49:09.333Z,102149.52
2017-11-17T04:51:37.043Z,102158.63
2017-11-17T04:54:05.121Z,102152.80
2017-11-17T04:56:32.834Z,102156.41
2017-11-17T04:59:00.506Z,102156.56
2017-11-17T05:01:28.211Z,102165.10
2017-11-17T05:03:55.914Z,102161.87
2017-11-17T05:06:23.620Z,102168.28
2017-11-17T05:08:51.353Z,102169.27
2017-11-17T05:11:19.051Z,102179.17
2017-11-17T05:13:46.762Z,102181.14
2017-11-17T05:16:14.469Z,102179.53
2017-11-17T05:18:42.191Z,102184.77
2017-11-17T05:21:09.927Z,102189.15
2017-11-17T05:23:37.584Z,102187.88
2017-11-17T05:26:05.266Z,102189.45
2017-11-17T05:28:32.929Z,102193.47
2017-11-17T05:31:00.569Z,102193.63
2017-11-17T05:33:28.157Z,102195.62
2017-11-17T05:35:55.880Z,102196.02
2017-11-17T05:38:23.608Z,102202.84
2017-11-17T05:40:51.346Z,102203.10
2017-11-17T05:43:19.383Z,102201.23
2017-11-17T05:45:47.449Z,102200.27
2017-11-17T05:48:15.156Z,102206.47
2017-11-17T05:50:47.176Z,102208.53
2017-11-17T05:53:16.345Z,102215.14
2017-11-17T05:55:44.720Z,102213.90
2017-11-17T05:58:13.863Z,102214.62
2017-11-17T06:00:42.065Z,102218.45
2017-11-17T06:03:09.800Z,102233.23
2017-11-17T06:05:37.918Z,102231.30
2017-11-17T06:08:05.659Z,102235.61
2017-11-17T06:10:33.806Z,102232.14
2017-11-17T06:13:01.651Z,102242.00
2017-11-17T06:15:29.421Z,102244.39
2017-11-17T06:17:57.154Z,102240.90
2017-11-17T06:20:25.142Z,102245.52
2017-11-17T06:22:53.072Z,102250.53
2017-11-17T06:25:21.095Z,102257.34
2017-11-17T06:27:49.677Z,102254.50
2017-11-17T06:30:18.361Z,102264.83
2017-11-17T06:32:46.369Z,102257.94
2017-11-17T06:35:14.172Z,102262.42
2017-11-17T06:37:41.815Z,102269.07
2017-11-17T06:40:09.564Z,102269.52
2017-11-17T06:42:37.664Z,102269.39
2017-11-17T06:45:05.761Z,102269.47
2017-11-17T06:47:33.671Z,102274.73
2017-11-17T06:50:02.212Z,102271.88
2017-11-17T06:52:30.349Z,102275.33
2017-11-17T06:54:58.228Z,102268.48
2017-11-17T06:57:27.006Z,102275.67
2017-11-17T06:59:55.680Z,102273.19
2017-11-17T07:02:23.941Z,102278.35
2017-11-17T07:04:51.706Z,102277.19
2017-11-17T07:07:19.598Z,102281.84
2017-11-17T07:09:48.220Z,102287.77
2017-11-17T07:12:15.983Z,102292.05
2017-11-17T07:14:44.104Z,102289.38
2017-11-17T07:17:12.591Z,102288.11
2017-11-17T07:19:40.668Z,102293.82
2017-11-17T07:22:08.465Z,102296.34
2017-11-17T07:24:36.514Z,102297.34
2017-11-17T07:27:04.590Z,102291.84
2017-11-17T07:29:32.524Z,102296.12
2017-11-17T07:32:00.278Z,102300.86
2017-11-17T07:34:28.205Z,102301.52
2017-11-17T07:36:56.459Z,102310.68
2017-11-17T07:39:25.271Z,102303.27
2017-11-17T07:41:53.033Z,102314.73
2017-11-17T07:44:21.707Z,102309.61
2017-11-17T07:46:49.690Z,102314.80
2017-11-17T07:49:18.717Z,102317.22
2017-11-17T07:51:48.798Z,102318.86
2017-11-17T07:54:16.696Z,102316.12
2017-11-17T07:56:44.550Z,102314.63
2017-11-17T07:59:12.175Z,102323.27
2017-11-17T08:01:39.809Z,102319.67
2017-11-17T08:04:08.496Z,102319.38
2017-11-17T08:06:37.318Z,102324.87
2017-11-17T08:09:05.334Z,102327.16
2017-11-17T08:11:33.175Z,102329.40
2017-11-17T08:14:01.880Z,102329.86
2017-11-17T08:16:30.332Z,102338.14
2017-11-17T08:18:58.464Z,102333.87
2017-11-17T08:21:26.179Z,102335.30
2017-11-17T08:23:54.935Z,102340.41
2017-11-17T08:26:24.769Z,102343.62
2017-11-17T08:28:52.547Z,102346.19
2017-11-17T08:31:21.094Z,102342.04
2017-11-17T08:33:48.888Z,102350.18
2017-11-17T08:36:17.034Z,102354.91
2017-11-17T08:38:44.783Z,102349.71
2017-11-17T08:41:12.690Z,102354.97
2017-11-17T08:43:40.690Z,102353.47
2017-11-17T08:46:08.425Z,102352.14
2017-11-17T08:48:36.137Z,102354.91
2017-11-17T08:51:04.053Z,102359.85
2017-11-17T08:53:32.046Z,102353.99
2017-11-17T08:55:59.884Z,102361.22
2017-11-17T08:58:27.949Z,102362.22
2017-11-17T09:00:56.682Z,102364.35
2017-11-17T09:03:24.435Z,102354.23
2017-11-17T09:05:56.173Z,102357.72
2017-11-17T09:08:24.076Z,102361.31
2017-11-17T09:10:52.172Z,102361.46
2017-11-17T09:13:21.042Z,102366.88
2017-11-17T09:15:49.079Z,102362.00
2017-11-17T09:18:16.810Z,102352.81
2017-11-17T09:20:44.606Z,102357.22
2017-11-17T09:23:12.712Z,102356.77
2017-11-17T09:25:40.498Z,102353.05
2017-11-17T09:28:08.269Z,102356.38
2017-11-17T09:30:36.232Z,102356.54
2017-11-17T09:33:04.076Z,102362.94
2017-11-17T09:35:31.855Z,102361.38
2017-11-17T09:37:59.940Z,102367.25
2017-11-17T09:40:27.762Z,102367.83
2017-11-17T09:42:55.819Z,102365.64
2017-11-17T09:45:24.431Z,102366.72
2017-11-17T09:47:52.345Z,102368.28
2017-11-17T09:50:20.609Z,102371.36
2017-11-17T09:52:48.811Z,102369.23
2017-11-17T09:55:21.303Z,102367.00
2017-11-17T09:57:49.063Z,102369.68
2017-11-17T10:00:17.014Z,102375.53
2017-11-17T10:02:44.667Z,102365.32
2017-11-17T10:05:12.734Z,102358.52
2017-11-17T10:07:40.808Z,102354.03
2017-11-17T10:10:09.123Z,102355.18
2017-11-17T10:12:37.017Z,102358.23
2017-11-17T10:15:05.003Z,102355.84
2017-11-17T10:17:32.966Z,102349.97
2017-11-17T10:20:01.094Z,102350.89
2017-11-17T10:22:28.806Z,102356.62
2017-11-17T10:24:56.820Z,102356.49
2017-11-17T10:27:25.564Z,102356.58
2017-11-17T10:29:53.532Z,102359.70
2017-11-17T10:32:21.557Z,102356.92
2017-11-17T10:34:49.637Z,102359.13
2017-11-17T10:37:18.019Z,102349.44
2017-11-17T10:39:46.971Z,102348.97
2017-11-17T10:42:15.038Z,102349.00
2017-11-17T10:44:43.236Z,102349.34
2017-11-17T10:47:11.233Z,102349.19
2017-11-17T10:49:38.932Z,102352.69
2017-11-17T10:52:07.204Z,102359.13
2017-11-17T10:54:35.304Z,102357.94
2017-11-17T10:57:03.744Z,102360.43
2017-11-17T10:59:33.606Z,102352.30
2017-11-17T11:02:01.390Z,102355.40
2017-11-17T11:04:29.416Z,102350.85
2017-11-17T11:06:57.451Z,102348.81
2017-11-17T11:09:25.228Z,102344.21
2017-11-17T11:11:53.288Z,102337.03
2017-11-17T11:14:21.452Z,102349.00
2017-11-17T11:16:49.230Z,102348.34
2017-11-17T11:19:17.243Z,102348.27
2017-11-17T11:21:45.436Z,102342.45
2017-11-17T11:24:13.275Z,102347.45
2017-11-17T11:26:42.859Z,102348.70
2017-11-17T11:29:11.782Z,102346.06
2017-11-17T11:31:42.896Z,102350.77
2017-11-17T11:34:10.660Z,102345.39
2017-11-17T11:36:38.397Z,102346.36
2017-11-17T11:39:06.762Z,102347.33
2017-11-17T11:41:34.476Z,102350.84
2017-11-17T11:44:02.199Z,102350.55
2017-11-17T11:46:30.175Z,102343.38
2017-11-17T11:48:58.425Z,102340.63
2017-11-17T11:51:26.148Z,102342.54
2017-11-17T11:53:54.024Z,102338.63
2017-11-17T11:56:21.764Z,102335.64
2017-11-17T11:58:49.803Z,102336.31
2017-11-17T12:01:17.860Z,102340.63
2017-11-17T12:03:45.858Z,102336.33
2017-11-17T12:06:13.919Z,102333.14
2017-11-17T12:08:41.600Z,102335.67
2017-11-17T12:11:09.343Z,102331.78
2017-11-17T12:13:37.750Z,102330.94
2017-11-17T12:16:05.920Z,102331.77
2017-11-17T12:18:33.599Z,102327.64
2017-11-17T12:21:01.380Z,102331.12
2017-11-17T12:23:29.130Z,102328.17
2017-11-17T12:25:56.852Z,102328.89
2017-11-17T12:28:24.540Z,102333.09
2017-11-17T12:30:52.524Z,102325.87
2017-11-17T12:33:20.495Z,102324.78
2017-11-17T12:35:48.369Z,102319.47
2017-11-17T12:38:16.081Z,102318.64
2017-11-17T12:40:43.888Z,102312.94
2017-11-17T12:43:12.539Z,102312.00
2017-11-17T12:45:40.376Z,102305.48
2017-11-17T12:48:08.065Z,102300.77
2017-11-17T12:50:36.075Z,102300.06
2017-11-17T12:53:04.124Z,102295.89
2017-11-17T12:55:31.825Z,102296.46
2017-11-17T12:58:00.258Z,102298.80
2017-11-17T13:00:28.335Z,102298.36
2017-11-17T13:02:56.039Z,102297.52
2017-11-17T13:05:24.260Z,102290.29
2017-11-17T13:07:52.055Z,102287.34
2017-11-17T13:10:20.134Z,102289.70
2017-11-17T13:12:48.066Z,102281.92
2017-11-17T13:15:16.427Z,102287.87
2017-11-17T13:17:44.600Z,102280.65
2017-11-17T13:20:12.389Z,102273.59
2017-11-17T13:22:40.202Z,102280.92
2017-11-17T13:25:07.977Z,102272.69
2017-11-17T13:27:36.974Z,102273.94
2017-11-17T13:30:05.186Z,102264.74
2017-11-17T13:32:32.956Z,102268.22
2017-11-17T13:35:00.963Z,102268.91
2017-11-17T13:37:28.950Z,102273.91
2017-11-17T13:39:56.701Z,102271.79
2017-11-17T13:42:24.472Z,102273.59
2017-11-17T13:44:52.505Z,102273.98
2017-11-17T13:47:20.329Z,102277.56
2017-11-17T13:49:49.293Z,102273.75
2017-11-17T13:52:18.693Z,102267.30
2017-11-17T13:54:46.392Z,102277.17
2017-11-17T13:57:14.484Z,102269.94
2017-11-17T13:59:42.627Z,102262.81
2017-11-17T14:02:10.580Z,102262.71
2017-11-17T14:04:38.356Z,102254.02
2017-11-17T14:07:06.435Z,102254.23
2017-11-17T14:09:34.233Z,102244.02
2017-11-17T14:12:02.023Z,102249.67
2017-11-17T14:14:29.710Z,102248.77
2017-11-17T14:16:57.883Z,102250.38
2017-11-17T14:19:26.456Z,102250.44
2017-11-17T14:21:54.508Z,102249.15
2017-11-17T14:24:22.267Z,102243.28
2017-11-17T14:26:49.917Z,102243.95
2017-11-17T14:29:18.698Z,102252.14
2017-11-17T14:31:46.504Z,102245.61
2017-11-17T14:34:14.675Z,102240.88
2017-11-17T14:36:42.471Z,102243.20
2017-11-17T14:39:10.312Z,102252.19
2017-11-17T14:41:39.105Z,102244.81
2017-11-17T14:44:07.272Z,102252.56
2017-11-17T14:46:34.960Z,102251.81
2017-11-17T14:49:03.989Z,102244.53
2017-11-17T14:51:31.702Z,102244.84
2017-11-17T14:53:59.440Z,102240.83
2017-11-17T14:56:27.949Z,102236.55
2017-11-17T14:58:55.648Z,102244.20
2017-11-17T15:01:23.485Z,102241.19
2017-11-17T15:03:51.632Z,102239.28
2017-11-17T15:06:20.422Z,102236.55
2017-11-17T15:08:48.137Z,102241.33
2017-11-17T15:11:16.212Z,102243.53
2017-11-17T15:13:44.123Z,102248.06
2017-11-17T15:16:12.369Z,102247.07
2017-11-17T15:18:40.588Z,102252.69
2017-11-17T15:21:08.574Z,102245.04
2017-11-17T15:23:37.576Z,102244.00
2017-11-17T15:26:05.727Z,102245.85
2017-11-17T15:28:33.427Z,102246.28
2017-11-17T15:31:01.208Z,102244.08
2017-11-17T15:33:28.885Z,102246.16
2017-11-17T15:35:56.657Z,102243.84
2017-11-17T15:38:26.592Z,102244.61
2017-11-17T15:40:54.641Z,102238.19
2017-11-17T15:43:22.705Z,102235.23
2017-11-17T15:45:51.380Z,102230.31
2017-11-17T15:48:19.407Z,102234.64
2017-11-17T15:50:47.301Z,102233.91
2017-11-17T15:53:15.516Z,102234.41
2017-11-17T15:55:43.914Z,102225.18
2017-11-17T15:58:11.790Z,102230.16
2017-11-17T16:00:39.548Z,102230.97
2017-11-17T16:03:08.372Z,102224.88
2017-11-17T16:05:36.396Z,102227.58
2017-11-17T16:08:04.119Z,102224.04
2017-11-17T16:10:31.867Z,102236.41
2017-11-17T16:12:59.954Z,102233.87
2017-11-17T16:15:27.674Z,102224.65
2017-11-17T16:17:56.181Z,102226.09
2017-11-17T16:20:24.004Z,102224.86
2017-11-17T16:22:52.560Z,102225.61
2017-11-17T16:25:20.263Z,102232.56
2017-11-17T16:27:47.979Z,102229.22
2017-11-17T16:30:16.013Z,102221.62
2017-11-17T16:32:43.893Z,102229.32
2017-11-17T16:35:11.731Z,102220.03
2017-11-17T16:37:39.850Z,102222.09
2017-11-17T16:40:08.832Z,102215.65
2017-11-17T16:42:36.540Z,102212.78
2017-11-17T16:45:04.269Z,102217.92
2017-11-17T16:47:32.777Z,102216.06
2017-11-17T16:50:01.065Z,102219.78
2017-11-17T16:52:28.801Z,102220.73
2017-11-17T16:54:56.933Z,102232.45
2017-11-17T16:57:25.485Z,102221.83
2017-11-17T16:59:53.272Z,102213.50
2017-11-17T17:02:21.272Z,102221.60
2017-11-17T17:04:49.448Z,102220.48
2017-11-17T17:07:17.102Z,102222.08
2017-11-17T17:09:44.932Z,102217.35
2017-11-17T17:12:13.579Z,102222.19
2017-11-17T17:14:41.292Z,102214.70
2017-11-17T17:17:10.206Z,102209.87
2017-11-17T17:19:38.824Z,102210.83
2017-11-17T17:22:06.896Z,102213.52
2017-11-17T17:24:34.691Z,102209.50
2017-11-17T17:27:03.112Z,102212.25
2017-11-17T17:29:31.209Z,102210.59
2017-11-17T17:31:59.067Z,102213.23
2017-11-17T17:34:27.087Z,102207.23
2017-11-17T17:36:55.239Z,102211.00
2017-11-17T17:39:23.252Z,102210.94
2017-11-17T17:41:51.447Z,102208.44
2017-11-17T17:44:19.533Z,102209.50
2017-11-17T17:46:47.209Z,102205.30
2017-11-17T17:49:16.103Z,102206.83
2017-11-17T17:51:43.885Z,102204.06
2017-11-17T17:54:12.869Z,102208.00
2017-11-17T17:56:40.683Z,102205.92
2017-11-17T17:59:08.400Z,102203.41
2017-11-17T18:01:36.211Z,102202.73
2017-11-17T18:04:03.967Z,102197.48
2017-11-17T18:06:31.652Z,102198.86
2017-11-17T18:08:59.425Z,102206.03
2017-11-17T18:11:27.734Z,102202.73
2017-11-17T18:13:55.509Z,102203.09
2017-11-17T18:16:23.653Z,102199.44
2017-11-17T18:18:51.724Z,102201.91
2017-11-17T18:21:19.766Z,102199.80
2017-11-17T18:23:48.306Z,102190.16
2017-11-17T18:26:15.961Z,102187.93
2017-11-17T18:28:43.789Z,102196.51
2017-11-17T18:31:12.179Z,102193.86
2017-11-17T18:33:40.100Z,102192.63
2017-11-17T18:36:07.936Z,102190.52
2017-11-17T18:38:35.809Z,102188.88
2017-11-17T18:41:04.103Z,102184.70
2017-11-17T18:43:31.915Z,102187.04
2017-11-17T18:45:59.783Z,102189.85
2017-11-17T18:48:27.954Z,102187.83
2017-11-17T18:50:56.213Z,102182.02
2017-11-17T18:53:24.309Z,102185.80
2017-11-17T18:55:52.037Z,102185.06
2017-11-17T18:58:19.904Z,102182.36
2017-11-17T19:00:47.680Z,102178.59
2017-11-17T19:03:15.595Z,102178.05
2017-11-17T19:05:43.528Z,102170.58
2017-11-17T19:08:11.810Z,102167.44
2017-11-17T19:10:40.448Z,102169.07
2017-11-17T19:13:08.304Z,102166.67
2017-11-17T19:15:36.344Z,102165.13
2017-11-17T19:18:04.285Z,102155.53
2017-11-17T19:20:32.253Z,102156.74
2017-11-17T19:23:01.003Z,102163.25
2017-11-17T19:25:29.029Z,102161.09
2017-11-17T19:27:57.881Z,102149.86
2017-11-17T19:30:26.708Z,102154.86
2017-11-17T19:32:55.260Z,102153.44
2017-11-17T19:35:23.390Z,102154.11
2017-11-17T19:37:51.748Z,102158.45
2017-11-17T19:40:20.549Z,102158.71
2017-11-17T19:42:49.638Z,102155.11
2017-11-17T19:45:18.136Z,102150.75
2017-11-17T19:47:46.155Z,102151.95
2017-11-17T19:50:14.269Z,102151.39
2017-11-17T19:52:43.802Z,102146.61
2017-11-17T19:55:11.699Z,102145.06
2017-11-17T19:57:41.637Z,102146.55
2017-11-17T20:00:09.886Z,102137.27
2017-11-17T20:02:38.692Z,102130.67
2017-11-17T20:05:08.079Z,102137.62
2017-11-17T20:07:38.828Z,102133.55
2017-11-17T20:10:08.064Z,102125.34
2017-11-17T20:12:37.699Z,102127.88
2017-11-17T20:15:07.044Z,102129.42
2017-11-17T20:17:37.286Z,102125.41
2017-11-17T20:20:06.375Z,102120.09
2017-11-17T20:22:35.427Z,102111.05
2017-11-17T20:25:06.094Z,102111.28
2017-11-17T20:27:34.962Z,102101.97
2017-11-17T20:30:02.873Z,102102.23
2017-11-17T20:32:32.283Z,102090.48
2017-11-17T20:35:01.383Z,102090.81
2017-11-17T20:37:29.252Z,102093.83
2017-11-17T20:39:57.224Z,102089.33
2017-11-17T20:42:25.633Z,102085.25
2017-11-17T20:44:54.903Z,102079.44
2017-11-17T20:47:23.968Z,102069.78
2017-11-17T20:49:52.927Z,102073.52
2017-11-17T20:52:21.914Z,102074.89
2017-11-17T20:54:51.031Z,102076.06
2017-11-17T20:57:21.085Z,102070.48
2017-11-17T20:59:49.561Z,102067.36
2017-11-17T21:02:17.740Z,102061.53
2017-11-17T21:04:54.052Z,102054.99
2017-11-17T21:07:23.270Z,102052.70
2017-11-17T21:09:51.737Z,102046.28
2017-11-17T21:12:20.957Z,102046.40
2017-11-17T21:14:50.911Z,102050.06
2017-11-17T21:17:20.117Z,102048.10
2017-11-17T21:19:51.429Z,102047.63
2017-11-17T21:22:22.036Z,102048.84
2017-11-17T21:24:52.636Z,102052.73
2017-11-17T21:27:20.597Z,102055.33
2017-11-17T21:29:51.847Z,102049.23
2017-11-17T21:32:20.210Z,102045.78
2017-11-17T21:34:50.632Z,102036.70
2017-11-17T21:37:18.542Z,102035.27
2017-11-17T21:39:46.936Z,102038.80
2017-11-17T21:42:15.237Z,102031.78
2017-11-17T21:44:43.041Z,102029.56
2017-11-17T21:47:10.848Z,102030.83
2017-11-17T21:49:40.056Z,102022.92
2017-11-17T21:52:08.893Z,102019.22
2017-11-17T21:54:37.405Z,102014.34
2017-11-17T21:57:06.141Z,102003.00
2017-11-17T21:59:34.675Z,101996.69
2017-11-17T22:02:02.562Z,102001.78
2017-11-17T22:04:31.153Z,101996.58
2017-11-17T22:06:58.993Z,102001.20
2017-11-17T22:09:26.904Z,102002.10
2017-11-17T22:11:54.675Z,101999.83
2017-11-17T22:14:22.804Z,101992.29
2017-11-17T22:16:51.473Z,101997.44
2017-11-17T22:19:19.228Z,101997.06
2017-11-17T22:21:46.990Z,101992.98
2017-11-17T22:24:15.133Z,101985.60
2017-11-17T22:26:42.976Z,101986.07
2017-11-17T22:29:10.676Z,101970.95
2017-11-17T22:31:38.905Z,101972.23
2017-11-17T22:34:06.626Z,101967.77
2017-11-17T22:36:34.735Z,101970.79
2017-11-17T22:39:02.979Z,101965.98
2017-11-17T22:41:30.660Z,101972.70
2017-11-17T22:43:58.752Z,101959.00
2017-11-17T22:46:26.595Z,101960.05
2017-11-17T22:48:54.300Z,101961.75
2017-11-17T22:51:22.120Z,101953.52
2017-11-17T22:53:49.769Z,101952.37
2017-11-17T22:56:17.739Z,101946.58
2017-11-17T22:58:46.577Z,101947.63
2017-11-17T23:01:14.292Z,101945.33
2017-11-17T23:03:42.318Z,101936.37
2017-11-17T23:06:10.056Z,101940.27
2017-11-17T23:08:38.781Z,101927.17
2017-11-17T23:11:06.481Z,101929.70
2017-11-17T23:13:34.477Z,101929.02
2017-11-17T23:16:02.414Z,101934.03
2017-11-17T23:18:30.141Z,101929.47
2017-11-17T23:20:59.100Z,101928.94
2017-11-17T23:23:27.205Z,101931.16
2017-11-17T23:25:54.948Z,101928.67
2017-11-17T23:28:22.789Z,101930.09
2017-11-17T23:30:50.881Z,101926.79
2017-11-17T23:33:18.713Z,101922.11
2017-11-17T23:35:46.476Z,101920.42
2017-11-17T23:38:14.250Z,101918.63
2017-11-17T23:40:41.997Z,101914.67
2017-11-17T23:43:09.763Z,101912.48
2017-11-17T23:45:37.470Z,101914.45
2017-11-17T23:48:05.192Z,101904.82
2017-11-17T23:50:33.235Z,101901.26
2017-11-17T23:53:01.238Z,101901.71
2017-11-17T23:55:29.516Z,101898.15
2017-11-17T23:57:57.614Z,101890.98
